Time;durP1;ratioP1;P1;durP2;ratioP2;P2;SDS_P1;SDS_P2;PMS_P1;PMS_P2;Temp;Humidity;BMP_temperature;BMP_pressure;BME280_temperature;BME280_humidity;BME280_pressure;Samples;Min_cycle;Max_cycle;Signal;HPM_P1;HPM_P2
2023/08/15 00:00:00;;;;;;;6.40;5.73;;;19.10;99.90;;;;;;481758;244;28777;-80
2023/08/15 00:02:01;;;;;;;6.77;5.77;;;19.00;99.90;;;;;;483753;246;29007;-80
2023/08/15 00:04:03;;;;;;;8.60;6.10;;;19.10;99.90;;;;;;484519;246;29001;-81
2023/08/15 00:06:04;;;;;;;6.50;5.57;;;19.10;99.90;;;;;;484462;246;28803;-81
2023/08/15 00:08:05;;;;;;;5.93;5.40;;;19.10;99.90;;;;;;484849;246;28759;-82
2023/08/15 00:10:06;;;;;;;7.93;6.30;;;19.10;99.90;;;;;;484789;245;29272;-81
2023/08/15 00:12:08;;;;;;;6.10;5.30;;;19.10;99.90;;;;;;484928;246;29246;-81
2023/08/15 00:14:09;;;;;;;6.73;5.47;;;19.10;99.90;;;;;;484711;246;28829;-81
2023/08/15 00:16:10;;;;;;;6.40;5.80;;;19.10;99.90;;;;;;484660;245;28747;-81
2023/08/15 00:18:12;;;;;;;6.67;5.97;;;19.10;99.90;;;;;;484728;245;28749;-81
2023/08/15 00:20:13;;;;;;;6.20;5.47;;;19.00;99.90;;;;;;484720;245;28920;-81
2023/08/15 00:22:15;;;;;;;6.70;5.73;;;19.10;99.90;;;;;;484877;245;28980;-81
2023/08/15 00:24:15;;;;;;;6.77;6.07;;;19.00;99.90;;;;;;484730;245;28877;-82
2023/08/15 00:26:17;;;;;;;8.20;6.40;;;19.10;99.90;;;;;;484733;245;28845;-81
2023/08/15 00:28:18;;;;;;;7.17;5.90;;;19.00;99.90;;;;;;484867;245;28758;-81
2023/08/15 00:30:19;;;;;;;6.63;5.70;;;19.00;99.90;;;;;;484798;245;28949;-81
2023/08/15 00:32:20;;;;;;;6.90;6.03;;;19.00;99.90;;;;;;483662;244;28879;-82
2023/08/15 00:34:22;;;;;;;8.47;5.57;;;19.00;99.90;;;;;;483859;244;28746;-81
2023/08/15 00:36:23;;;;;;;9.53;5.97;;;19.00;99.90;;;;;;479520;244;29462;-82
2023/08/15 00:38:24;;;;;;;6.03;5.53;;;18.90;99.90;;;;;;484427;244;29425;-82
2023/08/15 00:40:25;;;;;;;6.20;5.70;;;18.90;99.90;;;;;;483989;244;28968;-81
2023/08/15 00:42:27;;;;;;;9.20;5.70;;;19.00;99.90;;;;;;484218;244;28758;-81
2023/08/15 00:44:28;;;;;;;14.33;5.93;;;19.00;99.90;;;;;;481727;244;28815;-80
2023/08/15 00:46:30;;;;;;;7.10;6.13;;;19.00;99.90;;;;;;483277;246;28742;-83
2023/08/15 00:48:32;;;;;;;11.60;6.40;;;19.00;99.90;;;;;;484359;246;28798;-81
2023/08/15 00:50:32;;;;;;;12.60;7.13;;;18.90;99.90;;;;;;483962;245;28858;-80
2023/08/15 00:52:34;;;;;;;11.80;6.90;;;18.90;99.90;;;;;;484061;244;28918;-82
2023/08/15 00:54:35;;;;;;;7.37;6.37;;;18.90;99.90;;;;;;485049;244;28890;-80
2023/08/15 00:56:36;;;;;;;9.33;6.10;;;18.90;99.90;;;;;;484501;244;28875;-81
2023/08/15 00:58:38;;;;;;;8.63;5.93;;;18.90;99.90;;;;;;484785;245;28854;-81
2023/08/15 01:00:39;;;;;;;6.10;5.50;;;19.00;99.90;;;;;;484984;245;28838;-81
2023/08/15 01:02:40;;;;;;;5.93;5.33;;;19.00;99.90;;;;;;484655;245;28909;-82
2023/08/15 01:04:42;;;;;;;7.47;5.70;;;18.90;99.90;;;;;;481459;244;28879;-81
2023/08/15 01:06:43;;;;;;;6.30;5.70;;;18.90;99.90;;;;;;482808;244;28845;-80
2023/08/15 01:08:44;;;;;;;5.97;5.20;;;18.80;99.90;;;;;;484592;245;29326;-81
2023/08/15 01:10:45;;;;;;;6.43;5.40;;;18.80;99.90;;;;;;486289;243;30112;-80
2023/08/15 01:12:46;;;;;;;7.20;5.67;;;18.80;99.90;;;;;;488986;242;29263;-80
2023/08/15 01:14:48;;;;;;;9.70;5.83;;;18.80;99.90;;;;;;488823;243;28707;-82
2023/08/15 01:16:49;;;;;;;9.60;5.37;;;18.70;99.90;;;;;;489136;243;28901;-82
2023/08/15 01:18:50;;;;;;;7.00;5.70;;;18.70;99.90;;;;;;487114;243;28945;-81
2023/08/15 01:20:52;;;;;;;6.20;5.53;;;18.70;99.90;;;;;;481991;246;28938;-80
2023/08/15 01:22:53;;;;;;;9.93;5.63;;;18.70;99.90;;;;;;478977;243;28959;-81
2023/08/15 01:24:54;;;;;;;8.50;5.80;;;18.70;99.90;;;;;;484127;244;29273;-82
2023/08/15 01:26:55;;;;;;;6.90;6.00;;;18.80;99.90;;;;;;477009;245;28857;-80
2023/08/15 01:28:57;;;;;;;6.77;6.17;;;18.70;99.90;;;;;;482710;244;28870;-82
2023/08/15 01:30:58;;;;;;;6.80;5.73;;;18.80;99.90;;;;;;484467;244;28843;-80
2023/08/15 01:32:59;;;;;;;7.47;6.17;;;18.80;99.90;;;;;;484431;244;28943;-82
2023/08/15 01:35:00;;;;;;;8.53;6.30;;;18.80;99.90;;;;;;484688;244;29455;-82
2023/08/15 01:37:02;;;;;;;7.20;5.97;;;18.60;99.90;;;;;;484693;245;29299;-81
2023/08/15 01:39:03;;;;;;;7.87;6.20;;;18.60;99.90;;;;;;484668;246;29300;-80
2023/08/15 01:41:04;;;;;;;8.27;6.70;;;18.70;99.90;;;;;;483223;246;28828;-81
2023/08/15 01:43:06;;;;;;;10.20;6.00;;;18.90;99.90;;;;;;481530;245;28940;-81
2023/08/15 01:45:07;;;;;;;6.80;6.10;;;19.10;99.90;;;;;;481782;245;28844;-80
2023/08/15 01:47:08;;;;;;;6.63;4.90;;;19.20;99.90;;;;;;481952;245;28744;-81
2023/08/15 01:49:10;;;;;;;6.03;5.20;;;19.30;99.90;;;;;;482039;245;28862;-82
2023/08/15 01:51:11;;;;;;;5.40;4.90;;;19.50;99.90;;;;;;482041;245;28913;-81
2023/08/15 01:53:12;;;;;;;11.13;6.50;;;19.50;99.90;;;;;;481941;245;28797;-80
2023/08/15 01:55:13;;;;;;;6.43;5.07;;;19.50;99.90;;;;;;481167;245;29343;-80
2023/08/15 01:57:15;;;;;;;11.57;6.17;;;19.40;99.90;;;;;;481382;245;28977;-81
2023/08/15 01:59:16;;;;;;;6.43;5.50;;;19.40;99.90;;;;;;484118;245;28855;-81
2023/08/15 02:01:17;;;;;;;6.93;4.90;;;19.30;99.90;;;;;;480176;244;28875;-81
2023/08/15 02:03:18;;;;;;;6.23;4.30;;;19.30;99.90;;;;;;486153;243;28833;-81
2023/08/15 02:05:23;;;;;;;4.83;4.27;;;19.20;99.90;;;;;;477159;244;28910;-82
2023/08/15 02:07:24;;;;;;;4.53;3.87;;;19.20;99.90;;;;;;485159;244;28836;-81
2023/08/15 02:09:25;;;;;;;5.00;3.77;;;19.10;99.90;;;;;;483542;245;28710;-82
2023/08/15 02:11:27;;;;;;;5.83;4.20;;;19.10;99.90;;;;;;476602;244;28755;-82
2023/08/15 02:13:32;;;;;;;4.20;3.80;;;19.10;99.90;;;;;;478211;246;28812;-81
2023/08/15 02:15:29;;;;;;;4.40;3.90;;;19.00;99.90;;;;;;476555;246;29371;-82
2023/08/15 02:17:31;;;;;;;5.07;3.77;;;19.10;99.90;;;;;;479798;246;29220;-82
2023/08/15 02:19:32;;;;;;;4.90;4.40;;;19.10;99.90;;;;;;481519;243;28787;-83
2023/08/15 02:21:33;;;;;;;4.17;3.77;;;19.00;99.90;;;;;;483025;244;30055;-82
2023/08/15 02:23:35;;;;;;;5.43;3.73;;;19.00;99.90;;;;;;484957;246;28785;-80
2023/08/15 02:25:36;;;;;;;4.50;4.10;;;19.00;99.90;;;;;;485025;246;29254;-82
2023/08/15 02:27:37;;;;;;;5.40;4.60;;;19.00;99.90;;;;;;484949;245;28858;-81
2023/08/15 02:29:39;;;;;;;5.10;4.60;;;19.00;99.90;;;;;;484775;242;28864;-82
2023/08/15 02:31:40;;;;;;;8.40;4.80;;;18.90;99.90;;;;;;484764;246;28792;-81
2023/08/15 02:33:41;;;;;;;4.90;4.50;;;18.90;99.90;;;;;;481059;244;28820;-82
2023/08/15 02:35:43;;;;;;;4.87;4.37;;;18.90;99.90;;;;;;483152;244;28780;-82
2023/08/15 02:37:44;;;;;;;4.93;4.43;;;18.80;99.90;;;;;;486988;244;29960;-82
2023/08/15 02:39:45;;;;;;;5.30;4.80;;;18.80;99.90;;;;;;484705;243;28693;-82
2023/08/15 02:41:47;;;;;;;4.87;4.47;;;18.80;99.90;;;;;;484688;244;28847;-84
2023/08/15 02:43:48;;;;;;;6.17;4.80;;;18.80;99.90;;;;;;484327;243;29378;-83
2023/08/15 02:45:50;;;;;;;7.90;5.13;;;18.80;99.90;;;;;;482470;244;29458;-81
2023/08/15 02:47:52;;;;;;;8.63;5.37;;;18.70;99.90;;;;;;476587;246;29000;-81
2023/08/15 02:49:53;;;;;;;7.77;5.23;;;18.70;99.90;;;;;;478356;245;28889;-82
2023/08/15 02:51:54;;;;;;;7.43;5.03;;;18.70;99.90;;;;;;476169;246;28885;-81
2023/08/15 02:53:56;;;;;;;8.53;4.70;;;18.70;99.90;;;;;;478184;244;28757;-81
2023/08/15 02:55:57;;;;;;;5.93;4.93;;;18.70;99.90;;;;;;483928;243;28798;-81
2023/08/15 02:57:58;;;;;;;5.87;5.10;;;18.60;99.90;;;;;;475617;245;29482;-82
2023/08/15 03:00:00;;;;;;;7.90;5.43;;;18.60;99.90;;;;;;479824;243;28784;-81
2023/08/15 03:02:01;;;;;;;5.73;4.30;;;18.60;99.90;;;;;;482391;243;28834;-81
2023/08/15 03:04:02;;;;;;;5.30;4.53;;;18.60;99.90;;;;;;479869;246;28789;-81
2023/08/15 03:06:04;;;;;;;5.57;5.00;;;18.60;99.90;;;;;;486388;243;28862;-81
2023/08/15 03:08:05;;;;;;;6.33;4.50;;;18.60;99.90;;;;;;481946;242;28878;-82
2023/08/15 03:10:06;;;;;;;8.10;4.53;;;18.60;99.90;;;;;;484054;245;28732;-82
2023/08/15 03:12:07;;;;;;;5.40;4.90;;;18.60;99.90;;;;;;480967;244;28934;-81
2023/08/15 03:14:09;;;;;;;5.50;4.90;;;18.60;99.90;;;;;;480431;244;28802;-82
2023/08/15 03:16:10;;;;;;;5.90;5.00;;;18.60;99.90;;;;;;484746;245;29293;-82
2023/08/15 03:18:11;;;;;;;4.30;3.93;;;18.60;99.90;;;;;;479631;244;28673;-81
2023/08/15 03:20:12;;;;;;;5.77;4.93;;;18.70;99.90;;;;;;482035;245;28825;-81
2023/08/15 03:22:14;;;;;;;5.80;4.40;;;18.70;99.90;;;;;;483751;243;28829;-82
2023/08/15 03:24:18;;;;;;;5.87;4.80;;;18.70;99.90;;;;;;485005;243;28904;-82
2023/08/15 03:26:16;;;;;;;5.30;4.80;;;18.70;99.90;;;;;;483674;243;28838;-81
2023/08/15 03:28:18;;;;;;;12.70;5.70;;;18.60;99.90;;;;;;475343;243;29294;-80
2023/08/15 03:30:19;;;;;;;12.80;6.40;;;18.50;99.90;;;;;;483375;244;28915;-81
2023/08/15 03:32:20;;;;;;;5.70;5.03;;;18.40;99.90;;;;;;481256;245;28850;-81
2023/08/15 03:34:21;;;;;;;6.37;4.90;;;18.40;99.90;;;;;;484405;246;28762;-81
2023/08/15 03:36:23;;;;;;;5.83;5.20;;;18.40;99.90;;;;;;484673;246;28707;-82
2023/08/15 03:38:24;;;;;;;5.60;4.37;;;18.40;99.90;;;;;;484375;246;29332;-81
2023/08/15 03:40:25;;;;;;;4.90;4.43;;;18.40;99.90;;;;;;484477;245;31271;-82
2023/08/15 03:42:27;;;;;;;6.90;4.53;;;18.50;99.90;;;;;;484841;245;28895;-81
2023/08/15 03:44:28;;;;;;;4.70;4.30;;;18.50;99.90;;;;;;484728;245;28943;-81
2023/08/15 03:46:29;;;;;;;4.97;4.57;;;18.60;99.90;;;;;;484831;245;28823;-81
2023/08/15 03:48:30;;;;;;;7.00;4.10;;;18.50;99.90;;;;;;484911;245;28835;-82
2023/08/15 03:50:32;;;;;;;4.87;4.27;;;18.50;99.90;;;;;;484759;245;28824;-80
2023/08/15 03:52:35;;;;;;;4.33;4.03;;;18.50;99.90;;;;;;484867;245;28915;-82
2023/08/15 03:54:34;;;;;;;5.63;5.13;;;18.50;99.90;;;;;;484692;245;28911;-81
2023/08/15 03:56:35;;;;;;;10.60;5.00;;;18.40;99.90;;;;;;484684;245;28998;-82
2023/08/15 03:58:37;;;;;;;4.90;4.50;;;18.40;99.90;;;;;;481055;247;28858;-83
2023/08/15 04:00:38;;;;;;;4.40;4.00;;;18.50;99.90;;;;;;479948;244;28942;-81
2023/08/15 04:02:39;;;;;;;5.50;4.17;;;18.40;99.90;;;;;;478150;243;28800;-83
2023/08/15 04:04:41;;;;;;;5.03;4.23;;;18.40;99.90;;;;;;482802;243;29181;-81
2023/08/15 04:06:42;;;;;;;6.43;4.30;;;18.40;99.90;;;;;;482647;243;29264;-81
2023/08/15 04:08:45;;;;;;;4.90;3.60;;;18.40;99.90;;;;;;481879;243;29215;-81
2023/08/15 04:10:44;;;;;;;5.60;3.57;;;18.40;99.90;;;;;;483500;243;28815;-81
2023/08/15 04:12:46;;;;;;;3.40;3.10;;;18.40;99.90;;;;;;481016;244;28824;-82
2023/08/15 04:14:47;;;;;;;3.30;3.00;;;18.40;99.90;;;;;;482158;244;28783;-81
2023/08/15 04:16:48;;;;;;;3.33;2.63;;;18.40;99.90;;;;;;481838;244;28873;-80
2023/08/15 04:18:49;;;;;;;5.83;3.47;;;18.40;99.90;;;;;;483213;244;28793;-81
2023/08/15 04:20:51;;;;;;;4.90;3.30;;;18.40;99.90;;;;;;479556;244;28870;-81
2023/08/15 04:22:52;;;;;;;7.60;4.47;;;18.40;99.90;;;;;;484209;243;28890;-82
2023/08/15 04:24:53;;;;;;;4.80;3.40;;;18.40;99.90;;;;;;484569;245;28823;-81
2023/08/15 04:26:55;;;;;;;4.43;4.03;;;18.40;99.90;;;;;;484940;245;28826;-81
2023/08/15 04:28:56;;;;;;;4.30;3.90;;;18.40;99.90;;;;;;484700;246;28834;-81
2023/08/15 04:30:57;;;;;;;4.03;3.70;;;18.30;99.90;;;;;;484620;245;28791;-81
2023/08/15 04:33:01;;;;;;;8.23;4.07;;;18.30;99.90;;;;;;480038;243;29367;-81
2023/08/15 04:35:03;;;;;;;5.03;3.60;;;18.30;99.90;;;;;;479943;243;28735;-82
2023/08/15 04:37:04;;;;;;;4.60;4.20;;;18.30;99.90;;;;;;479398;244;28875;-83
2023/08/15 04:39:06;;;;;;;6.60;4.23;;;18.30;99.90;;;;;;484171;244;28865;-81
2023/08/15 04:41:06;;;;;;;4.97;3.60;;;18.30;99.90;;;;;;477325;244;30124;-82
2023/08/15 04:43:07;;;;;;;4.47;3.90;;;18.40;99.90;;;;;;480046;244;29400;-82
2023/08/15 04:45:09;;;;;;;4.67;3.90;;;18.40;99.90;;;;;;484260;243;29455;-81
2023/08/15 04:47:10;;;;;;;4.60;4.13;;;18.40;99.90;;;;;;486329;243;28811;-82
2023/08/15 04:49:11;;;;;;;4.33;3.93;;;18.40;99.90;;;;;;481192;242;28893;-82
2023/08/15 04:51:13;;;;;;;4.03;3.63;;;18.40;99.90;;;;;;476096;244;29174;-81
2023/08/15 04:53:14;;;;;;;4.30;3.90;;;18.40;99.90;;;;;;485277;243;28770;-81
2023/08/15 04:55:16;;;;;;;10.60;4.33;;;18.40;99.90;;;;;;486268;241;28856;-81
2023/08/15 04:57:17;;;;;;;5.37;3.80;;;18.40;99.90;;;;;;484412;244;28838;-82
2023/08/15 04:59:19;;;;;;;5.23;4.27;;;18.40;99.90;;;;;;479999;243;29951;-81
2023/08/15 05:01:20;;;;;;;7.50;4.20;;;18.40;99.90;;;;;;487193;242;28876;-81
2023/08/15 05:03:21;;;;;;;4.10;3.80;;;18.40;99.90;;;;;;480393;243;29386;-80
2023/08/15 05:05:23;;;;;;;5.00;4.60;;;18.20;99.90;;;;;;481274;243;28916;-81
2023/08/15 05:07:24;;;;;;;6.27;4.20;;;18.20;99.90;;;;;;484320;244;28885;-82
2023/08/15 05:09:25;;;;;;;4.47;3.47;;;18.30;99.90;;;;;;479623;245;29361;-82
2023/08/15 05:11:26;;;;;;;3.70;3.40;;;18.30;99.90;;;;;;483218;245;28794;-81
2023/08/15 05:13:28;;;;;;;4.03;3.63;;;18.30;99.90;;;;;;482588;244;28887;-81
2023/08/15 05:15:29;;;;;;;5.10;4.40;;;18.30;99.90;;;;;;481793;244;28890;-81
2023/08/15 05:17:30;;;;;;;6.77;5.10;;;18.20;99.90;;;;;;481127;244;28787;-81
2023/08/15 05:19:31;;;;;;;4.33;3.97;;;18.10;99.90;;;;;;478349;244;28840;-81
2023/08/15 05:21:33;;;;;;;3.67;3.37;;;18.20;99.90;;;;;;482243;245;29296;-82
2023/08/15 05:23:34;;;;;;;6.10;4.20;;;18.30;99.90;;;;;;483944;243;28844;-81
2023/08/15 05:25:35;;;;;;;4.63;3.57;;;18.30;99.90;;;;;;488029;242;28866;-81
2023/08/15 05:27:37;;;;;;;3.77;3.47;;;18.40;99.90;;;;;;484589;244;28824;-81
2023/08/15 05:29:40;;;;;;;3.63;3.30;;;18.40;99.90;;;;;;483284;244;29253;-81
2023/08/15 05:31:39;;;;;;;4.03;3.50;;;18.40;99.90;;;;;;489061;243;28753;-81
2023/08/15 05:33:40;;;;;;;5.07;3.70;;;18.40;99.90;;;;;;481714;242;28736;-83
2023/08/15 05:35:42;;;;;;;3.17;2.87;;;18.40;99.90;;;;;;483764;243;28829;-81
2023/08/15 05:37:43;;;;;;;5.43;3.43;;;18.40;99.90;;;;;;481637;245;28794;-82
2023/08/15 05:39:44;;;;;;;4.80;3.73;;;18.40;99.90;;;;;;476714;245;28804;-82
2023/08/15 05:41:46;;;;;;;3.53;3.23;;;18.50;99.90;;;;;;479829;244;29432;-81
2023/08/15 05:43:47;;;;;;;4.53;3.60;;;18.50;99.90;;;;;;483448;243;28752;-81
2023/08/15 05:45:49;;;;;;;2.70;2.60;;;18.50;99.90;;;;;;484632;243;29568;-81
2023/08/15 05:47:49;;;;;;;3.63;3.33;;;18.50;99.90;;;;;;484332;242;28791;-81
2023/08/15 05:49:51;;;;;;;3.77;3.47;;;18.60;99.90;;;;;;478984;243;28895;-81
2023/08/15 05:51:53;;;;;;;3.63;3.37;;;18.60;99.90;;;;;;483610;243;28821;-82
2023/08/15 05:53:53;;;;;;;2.87;2.67;;;18.70;99.90;;;;;;484676;243;28694;-82
2023/08/15 05:55:55;;;;;;;4.83;3.57;;;18.60;99.90;;;;;;484908;244;28871;-82
2023/08/15 05:57:56;;;;;;;5.93;3.20;;;18.70;99.90;;;;;;485403;244;30049;-81
2023/08/15 05:59:57;;;;;;;2.80;2.60;;;18.70;99.90;;;;;;486235;243;28757;-81
2023/08/15 06:01:59;;;;;;;3.60;3.30;;;18.80;99.90;;;;;;484039;242;28795;-81
2023/08/15 06:04:00;;;;;;;3.27;3.07;;;18.80;99.90;;;;;;479125;246;28761;-81
2023/08/15 06:06:01;;;;;;;9.17;3.83;;;18.80;99.90;;;;;;474026;250;28856;-81
2023/08/15 06:08:02;;;;;;;4.43;2.93;;;18.80;99.90;;;;;;478367;246;28849;-81
2023/08/15 06:10:03;;;;;;;2.90;2.70;;;18.90;99.90;;;;;;484421;245;28771;-81
2023/08/15 06:12:05;;;;;;;8.60;4.47;;;18.90;99.90;;;;;;483852;243;29285;-81
2023/08/15 06:14:06;;;;;;;6.47;3.40;;;18.90;99.90;;;;;;480873;243;28823;-82
2023/08/15 06:16:07;;;;;;;3.07;2.60;;;19.00;99.90;;;;;;480153;242;28764;-81
2023/08/15 06:18:09;;;;;;;4.93;2.77;;;19.00;99.90;;;;;;483872;244;28836;-80
2023/08/15 06:20:10;;;;;;;3.10;2.80;;;19.10;99.90;;;;;;484273;244;28809;-80
2023/08/15 06:22:11;;;;;;;8.70;3.77;;;19.10;99.90;;;;;;479868;244;28859;-81
2023/08/15 06:24:13;;;;;;;3.93;3.60;;;19.10;99.90;;;;;;485698;243;28742;-81
2023/08/15 06:26:15;;;;;;;3.47;3.17;;;19.10;99.90;;;;;;485044;246;29228;-81
2023/08/15 06:28:18;;;;;;;3.90;3.30;;;19.20;99.90;;;;;;485103;245;28762;-81
2023/08/15 06:30:18;;;;;;;6.30;3.70;;;19.20;99.90;;;;;;484242;244;28883;-80
2023/08/15 06:32:19;;;;;;;5.87;3.50;;;19.30;99.90;;;;;;483920;244;28786;-81
2023/08/15 06:34:20;;;;;;;6.63;3.20;;;19.30;99.90;;;;;;480341;244;28861;-81
2023/08/15 06:36:21;;;;;;;4.83;3.30;;;19.30;99.90;;;;;;483452;246;28828;-84
2023/08/15 06:38:23;;;;;;;3.93;3.00;;;19.40;99.90;;;;;;482190;244;28809;-82
2023/08/15 06:40:24;;;;;;;4.17;3.13;;;19.50;99.90;;;;;;478916;246;28790;-82
2023/08/15 06:42:26;;;;;;;3.33;2.67;;;19.50;99.90;;;;;;480701;244;29251;-82
2023/08/15 06:44:27;;;;;;;2.70;2.50;;;19.60;99.90;;;;;;481719;245;29424;-81
2023/08/15 06:46:28;;;;;;;3.83;2.83;;;19.70;99.90;;;;;;473955;251;28819;-80
2023/08/15 06:48:30;;;;;;;3.20;3.00;;;19.70;99.90;;;;;;483336;243;28848;-79
2023/08/15 06:50:31;;;;;;;2.87;2.67;;;19.80;99.90;;;;;;484600;244;29478;-79
2023/08/15 06:52:32;;;;;;;4.00;3.10;;;19.80;99.90;;;;;;484252;245;28902;-80
2023/08/15 06:54:34;;;;;;;2.60;2.40;;;19.80;99.90;;;;;;476869;246;28961;-80
2023/08/15 06:56:35;;;;;;;4.27;2.80;;;19.90;99.90;;;;;;476078;250;29031;-79
2023/08/15 06:58:36;;;;;;;2.93;2.60;;;19.90;99.90;;;;;;479388;246;28843;-79
2023/08/15 07:00:37;;;;;;;4.67;2.80;;;19.90;99.90;;;;;;483059;244;29275;-80
2023/08/15 07:02:39;;;;;;;2.70;2.50;;;20.10;99.90;;;;;;484622;244;28896;-80
2023/08/15 07:04:40;;;;;;;6.53;2.80;;;20.10;99.90;;;;;;476600;245;28945;-80
2023/08/15 07:06:41;;;;;;;3.73;2.90;;;20.20;99.90;;;;;;473647;251;30037;-79
2023/08/15 07:08:42;;;;;;;3.93;2.70;;;20.30;99.90;;;;;;474155;247;29306;-79
2023/08/15 07:10:44;;;;;;;3.17;2.87;;;20.40;99.90;;;;;;477088;243;29302;-80
2023/08/15 07:12:45;;;;;;;2.80;2.60;;;20.40;99.90;;;;;;480805;244;28796;-80
2023/08/15 07:14:46;;;;;;;3.20;2.90;;;20.60;99.90;;;;;;481221;245;28907;-79
2023/08/15 07:16:47;;;;;;;5.33;2.93;;;20.80;99.90;;;;;;473289;251;28910;-80
2023/08/15 07:18:49;;;;;;;3.10;2.57;;;21.00;99.90;;;;;;473203;250;28871;-80
2023/08/15 07:20:52;;;;;;;3.27;2.97;;;21.20;99.90;;;;;;476488;242;28836;-80
2023/08/15 07:22:55;;;;;;;4.30;2.93;;;21.40;99.90;;;;;;478807;245;29385;-81
2023/08/15 07:24:54;;;;;;;4.93;2.30;;;21.60;99.90;;;;;;478600;246;29298;-79
2023/08/15 07:26:56;;;;;;;3.80;2.90;;;21.80;99.90;;;;;;478044;243;28836;-80
2023/08/15 07:28:57;;;;;;;4.73;2.70;;;21.90;99.90;;;;;;482724;244;28983;-80
2023/08/15 07:30:58;;;;;;;2.97;2.47;;;22.00;99.90;;;;;;483978;246;28979;-79
2023/08/15 07:32:59;;;;;;;3.07;2.70;;;22.00;99.90;;;;;;480663;243;28843;-79
2023/08/15 07:35:01;;;;;;;5.83;2.97;;;22.00;99.90;;;;;;477733;246;28967;-80
2023/08/15 07:37:02;;;;;;;4.57;3.13;;;21.90;99.90;;;;;;483926;246;29295;-81
2023/08/15 07:39:03;;;;;;;4.83;3.00;;;21.90;99.90;;;;;;483967;246;28837;-79
2023/08/15 07:41:05;;;;;;;3.30;3.00;;;21.90;99.90;;;;;;484000;246;28934;-80
2023/08/15 07:43:06;;;;;;;2.93;2.70;;;21.80;99.90;;;;;;484953;243;29187;-79
2023/08/15 07:45:07;;;;;;;5.07;2.67;;;21.80;99.90;;;;;;482414;243;28921;-79
2023/08/15 07:47:08;;;;;;;4.77;2.73;;;21.80;99.90;;;;;;479296;245;28838;-79
2023/08/15 07:49:10;;;;;;;3.80;3.47;;;21.80;99.90;;;;;;474873;244;29378;-79
2023/08/15 07:51:11;;;;;;;3.07;2.80;;;21.80;99.90;;;;;;483104;246;29316;-79
2023/08/15 07:53:12;;;;;;;6.10;2.80;;;21.90;99.90;;;;;;484252;244;29384;-79
2023/08/15 07:55:13;;;;;;;4.10;2.80;;;22.00;99.90;;;;;;483017;244;28873;-79
2023/08/15 07:57:15;;;;;;;4.30;3.60;;;22.10;99.90;;;;;;478961;243;28871;-79
2023/08/15 07:59:16;;;;;;;6.10;3.33;;;22.10;99.90;;;;;;483990;243;28781;-79
2023/08/15 08:01:17;;;;;;;4.20;3.00;;;22.10;99.90;;;;;;481205;244;28886;-79
2023/08/15 08:03:18;;;;;;;4.00;2.90;;;22.00;99.90;;;;;;485364;243;28831;-80
2023/08/15 08:05:20;;;;;;;5.53;3.80;;;22.10;99.90;;;;;;479074;246;28828;-79
2023/08/15 08:07:25;;;;;;;4.93;3.43;;;22.10;99.90;;;;;;481784;244;28952;-79
2023/08/15 08:09:23;;;;;;;3.80;3.13;;;22.20;99.90;;;;;;483542;245;28787;-80
2023/08/15 08:11:24;;;;;;;3.70;3.27;;;22.20;99.90;;;;;;484017;243;28881;-79
2023/08/15 08:13:25;;;;;;;5.00;3.20;;;22.30;99.90;;;;;;483840;246;29293;-84
2023/08/15 08:15:27;;;;;;;3.33;3.00;;;22.20;99.90;;;;;;482064;243;28877;-85
2023/08/15 08:17:28;;;;;;;4.27;3.70;;;22.20;99.90;;;;;;479767;242;29616;-83
2023/08/15 08:19:29;;;;;;;9.03;3.60;;;22.30;99.90;;;;;;483971;244;29396;-83
2023/08/15 08:21:30;;;;;;;7.23;3.60;;;22.30;99.90;;;;;;484089;243;29385;-84
2023/08/15 08:23:32;;;;;;;4.10;3.50;;;22.40;99.90;;;;;;484062;245;28963;-82
2023/08/15 08:25:33;;;;;;;5.03;3.77;;;22.50;99.90;;;;;;481955;246;28895;-82
2023/08/15 08:27:41;;;;;;;7.10;3.47;;;22.50;99.90;;;;;;481723;246;28812;-82
2023/08/15 08:29:40;;;;;;;4.87;3.67;;;22.70;99.90;;;;;;481877;245;29456;-83
2023/08/15 08:31:42;;;;;;;3.53;3.23;;;22.90;99.90;;;;;;481858;243;29466;-81
2023/08/15 08:33:43;;;;;;;6.63;3.80;;;22.90;99.90;;;;;;481589;244;28910;-81
2023/08/15 08:35:44;;;;;;;4.60;3.37;;;23.00;99.90;;;;;;478945;245;28947;-80
2023/08/15 08:37:50;;;;;;;5.07;3.10;;;23.20;99.90;;;;;;482385;243;28877;-82
2023/08/15 08:39:47;;;;;;;4.50;3.77;;;23.30;99.90;;;;;;478766;243;29390;-80
2023/08/15 08:41:49;;;;;;;3.47;3.17;;;23.40;99.90;;;;;;478886;243;29351;-79
2023/08/15 08:43:50;;;;;;;11.03;3.10;;;23.60;99.90;;;;;;482071;242;29386;-85
2023/08/15 08:45:51;;;;;;;3.40;3.10;;;23.70;99.90;;;;;;479795;242;30351;-83
2023/08/15 08:47:53;;;;;;;3.97;3.40;;;23.70;99.90;;;;;;481646;243;28858;-84
2023/08/15 08:49:54;;;;;;;5.03;3.10;;;23.90;99.90;;;;;;482559;244;28876;-87
2023/08/15 08:51:55;;;;;;;7.33;4.50;;;24.00;99.90;;;;;;481457;244;28839;-80
2023/08/15 08:53:57;;;;;;;5.87;3.80;;;24.00;99.90;;;;;;480922;243;28727;-83
2023/08/15 08:55:58;;;;;;;4.70;3.93;;;24.00;99.90;;;;;;485545;242;28959;-81
2023/08/15 08:57:59;;;;;;;4.70;3.23;;;24.00;99.90;;;;;;483557;244;28845;-83
2023/08/15 09:00:00;;;;;;;4.00;3.47;;;24.00;99.90;;;;;;480228;243;28880;-84
2023/08/15 09:02:02;;;;;;;9.00;4.40;;;24.00;99.90;;;;;;482930;243;28840;-81
2023/08/15 09:04:03;;;;;;;4.73;3.20;;;23.90;99.90;;;;;;483746;245;28842;-83
2023/08/15 09:06:04;;;;;;;9.10;3.23;;;23.60;99.90;;;;;;481732;243;28960;-86
2023/08/15 09:08:06;;;;;;;3.67;3.37;;;23.50;99.90;;;;;;481027;243;29011;-81
2023/08/15 09:10:07;;;;;;;3.30;3.00;;;23.50;99.90;;;;;;483876;244;29001;-84
2023/08/15 09:12:08;;;;;;;3.63;3.27;;;23.50;99.90;;;;;;482656;246;29024;-81
2023/08/15 09:14:09;;;;;;;3.87;3.07;;;23.60;99.90;;;;;;481503;243;29265;-79
2023/08/15 09:16:11;;;;;;;4.37;3.47;;;23.80;99.90;;;;;;483176;243;29326;-79
2023/08/15 09:18:12;;;;;;;3.60;3.30;;;23.80;99.90;;;;;;478399;244;28814;-82
2023/08/15 09:20:13;;;;;;;3.50;3.20;;;23.70;99.90;;;;;;481772;243;28805;-82
2023/08/15 09:22:15;;;;;;;3.83;3.40;;;23.50;99.90;;;;;;481942;246;28908;-81
2023/08/15 09:24:16;;;;;;;4.37;3.73;;;23.40;99.90;;;;;;481386;243;28864;-80
2023/08/15 09:26:17;;;;;;;3.50;3.20;;;23.30;99.90;;;;;;484776;243;28759;-82
2023/08/15 09:28:18;;;;;;;3.93;3.50;;;23.10;99.90;;;;;;479480;244;28818;-80
2023/08/15 09:30:20;;;;;;;3.60;3.30;;;23.00;99.90;;;;;;480482;245;28937;-79
2023/08/15 09:32:22;;;;;;;4.03;3.63;;;22.90;99.90;;;;;;482054;243;28942;-79
2023/08/15 09:34:24;;;;;;;6.93;3.83;;;22.80;99.90;;;;;;480062;243;29532;-80
2023/08/15 09:36:26;;;;;;;4.10;3.67;;;22.70;99.90;;;;;;482439;244;28872;-79
2023/08/15 09:38:27;;;;;;;4.37;3.97;;;22.70;99.90;;;;;;483199;245;28895;-80
2023/08/15 09:40:28;;;;;;;4.30;3.90;;;22.70;99.90;;;;;;480879;243;28919;-80
2023/08/15 09:42:30;;;;;;;5.27;4.23;;;22.80;99.90;;;;;;480436;242;28767;-82
2023/08/15 09:44:34;;;;;;;4.37;3.97;;;22.80;99.90;;;;;;478924;245;28828;-81
2023/08/15 09:46:33;;;;;;;9.20;4.07;;;22.60;99.90;;;;;;482927;245;29534;-84
2023/08/15 09:48:35;;;;;;;12.80;5.43;;;22.40;99.90;;;;;;480996;243;29515;-79
2023/08/15 09:50:36;;;;;;;21.23;7.10;;;22.00;99.90;;;;;;480347;243;28899;-79
2023/08/15 09:52:38;;;;;;;12.13;5.80;;;21.50;99.90;;;;;;482173;245;28855;-81
2023/08/15 09:54:42;;;;;;;6.90;5.13;;;20.90;99.90;;;;;;483317;243;29130;-84
2023/08/15 09:56:40;;;;;;;8.63;4.73;;;20.60;99.90;;;;;;484288;243;30079;-83
2023/08/15 09:58:42;;;;;;;10.87;4.63;;;20.60;99.90;;;;;;482637;245;29313;-85
2023/08/15 10:00:43;;;;;;;7.03;4.43;;;20.50;99.90;;;;;;481957;243;29296;-84
2023/08/15 10:02:44;;;;;;;6.50;4.50;;;20.40;99.90;;;;;;483803;244;28736;-83
2023/08/15 10:04:45;;;;;;;6.20;4.80;;;20.20;99.90;;;;;;481693;244;28861;-81
2023/08/15 10:06:47;;;;;;;6.13;4.60;;;20.20;99.90;;;;;;483399;243;28809;-82
2023/08/15 10:08:49;;;;;;;8.37;4.97;;;20.10;99.90;;;;;;483765;245;28767;-82
2023/08/15 10:10:51;;;;;;;6.63;4.70;;;20.00;99.90;;;;;;482234;245;28840;-82
2023/08/15 10:12:52;;;;;;;7.63;5.17;;;20.00;99.90;;;;;;484013;245;29201;-82
2023/08/15 10:15:04;;;;;;;13.40;7.33;;;20.00;99.90;;;;;;481832;245;29139;-81
2023/08/15 10:17:00;;;;;;;14.50;8.87;;;19.70;99.90;;;;;;479393;245;28886;-82
2023/08/15 10:19:02;;;;;;;9.80;6.63;;;19.60;99.90;;;;;;482035;245;28842;-81
2023/08/15 10:21:06;;;;;;;8.23;6.00;;;19.50;99.90;;;;;;480317;243;29413;-81
2023/08/15 10:23:07;;;;;;;5.77;5.00;;;19.40;99.90;;;;;;484289;244;29201;-82
2023/08/15 10:25:06;;;;;;;5.10;4.60;;;19.50;99.90;;;;;;482609;245;28917;-82
2023/08/15 10:27:07;;;;;;;5.00;4.37;;;19.50;99.90;;;;;;481911;243;28777;-81
2023/08/15 10:29:08;;;;;;;5.23;3.93;;;19.70;99.90;;;;;;481041;244;28880;-82